Time;durP1;ratioP1;P1;durP2;ratioP2;P2;SDS_P1;SDS_P2;PMS_P1;PMS_P2;Temp;Humidity;BMP_temperature;BMP_pressure;BME280_temperature;BME280_humidity;BME280_pressure;Samples;Min_cycle;Max_cycle;Signal;HPM_P1;HPM_P2
2023/06/19 00:02:44;;;;;;;;;19.50;16.50;;;;;20.32;74.44;100861.69;146614;570;46021;-68
2023/06/19 00:05:37;;;;;;;;;11.75;11.75;;;;;20.32;74.83;100853.78;146610;669;46016;-67
2023/06/19 00:08:42;;;;;;;;;16.50;13.75;;;;;20.28;74.46;100858.13;146614;606;46021;-67
2023/06/19 00:11:41;;;;;;;;;15.50;14.00;;;;;20.23;74.53;100851.91;146609;631;46012;-67
2023/06/19 00:14:39;;;;;;;;;12.50;12.00;;;;;20.16;75.38;100847.44;146613;692;46012;-67
2023/06/19 00:17:42;;;;;;;;;12.25;12.25;;;;;20.09;75.03;100850.81;146606;703;47916;-68
2023/06/19 00:20:50;;;;;;;;;13.00;12.00;;;;;20.07;74.78;100853.44;146612;657;46012;-68
2023/06/19 00:24:05;;;;;;;;;11.67;10.67;;;;;18.15;73.28;100523.53;146611;569;46017;-69
2023/06/19 00:27:07;;;;;;;;;11.50;10.75;;;;;20.06;74.94;100856.03;146613;585;46020;-68
2023/06/19 00:30:08;;;;;;;;;13.00;11.75;;;;;20.04;75.62;100855.16;146611;662;46012;-69
2023/06/19 00:33:17;;;;;;;;;;;;;;;;;;;;;
2023/06/19 00:36:27;;;;;;;;;15.00;13.00;;;;;18.92;74.21;100662.28;146611;650;46016;-68
2023/06/19 00:39:20;;;;;;;;;12.50;12.00;;;;;20.03;75.00;100848.09;146614;564;46020;-68
2023/06/19 00:42:24;;;;;;;;;14.00;12.00;;;;;20.07;74.94;100847.28;146613;686;46016;-68
2023/06/19 00:45:24;;;;;;;;;16.75;15.25;;;;;20.16;74.82;100844.78;146611;688;46020;-69
2023/06/19 00:48:21;;;;;;;;;17.00;14.00;;;;;20.27;75.18;100844.94;146612;571;46031;-68
2023/06/19 00:51:27;;;;;;;;;;;;;;;;;;;;;
2023/06/19 00:54:39;;;;;;;;;19.25;16.50;;;;;20.49;75.58;100832.91;146611;602;46915;-68
2023/06/19 00:57:44;;;;;;;;;22.00;19.75;;;;;20.64;74.49;100837.53;146614;605;47020;-68
2023/06/19 01:00:48;;;;;;;;;14.75;14.75;;;;;19.94;72.56;100701.50;146612;672;46016;-68
2023/06/19 01:03:44;;;;;;;;;15.25;13.75;;;;;20.85;73.71;100832.50;146613;652;46020;-68
2023/06/19 01:07:10;;;;;;;;;15.25;12.75;;;;;20.93;73.56;100840.50;146613;605;46035;-68
2023/06/19 01:10:16;;;;;;;;;15.25;14.25;;;;;20.99;73.31;100832.63;146614;684;46020;-68
2023/06/19 01:14:03;;;;;;;;;16.00;15.00;;;;;21.03;71.83;100837.09;146614;614;46012;-68
2023/06/19 01:17:02;;;;;;;;;19.00;16.00;;;;;21.09;72.58;100836.25;146615;595;46010;-69
2023/06/19 01:19:58;;;;;;;;;15.25;14.50;;;;;21.14;72.39;100835.44;146614;580;46012;-70
2023/06/19 01:22:59;;;;;;;;;13.00;11.25;;;;;21.18;72.42;100833.72;146613;564;46010;-72
2023/06/19 01:26:26;;;;;;;;;18.50;16.75;;;;;20.17;71.05;100657.00;146613;591;46016;-70
2023/06/19 01:29:30;;;;;;;;;15.25;13.75;;;;;21.21;72.23;100836.38;146615;573;46033;-68
2023/06/19 01:33:00;;;;;;;;;16.75;15.00;;;;;20.24;70.52;100666.72;146610;685;46916;-71
2023/06/19 01:36:15;;;;;;;;;16.25;15.25;;;;;21.23;71.80;100834.66;146611;596;47012;-68
2023/06/19 01:39:36;;;;;;;;;17.25;17.25;;;;;21.25;71.37;100848.75;146610;593;46012;-68
2023/06/19 01:42:33;;;;;;;;;12.00;9.25;;;;;21.27;71.50;100836.44;146619;624;46010;-67
2023/06/19 01:45:34;;;;;;;;;15.50;13.25;;;;;21.28;71.36;100839.94;146617;618;46012;-67
2023/06/19 01:48:31;;;;;;;;;17.50;15.50;;;;;21.30;71.55;100847.00;146613;595;46020;-69
2023/06/19 01:51:28;;;;;;;;;16.00;12.50;;;;;21.31;71.41;100843.53;146614;582;46016;-68
2023/06/19 01:54:34;;;;;;;;;16.25;16.00;;;;;20.88;69.65;100774.56;146606;677;47010;-69
2023/06/19 01:57:29;;;;;;;;;18.25;17.50;;;;;21.32;70.45;100847.03;146610;569;47016;-69
2023/06/19 02:00:26;;;;;;;;;17.50;17.00;;;;;21.34;70.31;100856.75;146610;614;48020;-68
2023/06/19 02:03:25;;;;;;;;;16.50;16.50;;;;;21.33;69.91;100848.81;146611;627;46012;-68
2023/06/19 02:06:34;;;;;;;;;18.00;16.00;;;;;21.34;69.60;100853.19;146613;570;46020;-69
2023/06/19 02:09:28;;;;;;;;;17.25;16.00;;;;;21.36;69.85;100856.78;146607;706;47918;-69
2023/06/19 02:12:25;;;;;;;;;17.00;15.50;;;;;21.35;69.60;100849.72;146616;575;46020;-68
2023/06/19 02:15:24;;;;;;;;;17.75;17.75;;;;;21.37;69.18;100855.91;146612;685;46014;-68
2023/06/19 02:18:19;;;;;;;;;15.25;15.25;;;;;21.37;69.47;100855.91;146612;702;46020;-68
2023/06/19 02:21:17;;;;;;;;;19.25;16.50;;;;;21.36;69.42;100864.69;146613;585;46013;-68
2023/06/19 02:24:49;;;;;;;;;18.75;16.50;;;;;19.46;68.90;100531.59;146613;634;46020;-69
2023/06/19 02:27:50;;;;;;;;;18.50;15.50;;;;;21.35;68.51;100868.19;146615;622;46016;-69
2023/06/19 02:30:56;;;;;;;;;18.67;16.67;;;;;21.36;68.60;100864.69;146619;591;46029;-69
2023/06/19 02:33:51;;;;;;;;;18.75;17.75;;;;;21.34;68.36;100882.22;146612;624;46016;-69
2023/06/19 02:37:01;;;;;;;;;21.00;18.25;;;;;21.33;67.57;100877.81;146622;669;46021;-69
2023/06/19 02:39:59;;;;;;;;;20.00;18.75;;;;;21.30;68.00;100885.69;146617;578;46016;-69
2023/06/19 02:43:09;;;;;;;;;17.25;17.00;;;;;21.27;67.61;100890.94;146614;704;46010;-69
2023/06/19 02:46:07;;;;;;;;;18.25;17.00;;;;;21.26;68.24;100897.09;146608;607;46017;-69
2023/06/19 02:49:03;;;;;;;;;17.25;15.50;;;;;21.21;68.46;100891.75;146613;726;46020;-69
2023/06/19 02:52:21;;;;;;;;;20.00;17.75;;;;;21.17;68.04;100901.37;146606;593;46016;-69
2023/06/19 02:55:20;;;;;;;;;19.25;19.25;;;;;21.15;68.43;100900.50;146609;628;46030;-71
2023/06/19 02:58:23;;;;;;;;;18.50;17.50;;;;;21.13;68.49;100909.25;146608;561;46016;-69
2023/06/19 03:01:21;;;;;;;;;23.00;18.00;;;;;21.13;68.26;100915.41;146615;646;46010;-70
2023/06/19 03:04:30;;;;;;;;;15.00;15.00;;;;;21.14;67.76;100913.66;146610;595;47012;-69
2023/06/19 03:07:32;;;;;;;;;16.75;14.25;;;;;21.15;68.31;100918.97;146615;566;46010;-67
2023/06/19 03:10:26;;;;;;;;;15.75;14.00;;;;;21.17;68.46;100919.84;146611;577;46012;-68
2023/06/19 03:13:20;;;;;;;;;20.25;19.50;;;;;21.18;67.59;100913.72;146613;567;46020;-68
2023/06/19 03:16:19;;;;;;;;;20.25;18.00;;;;;21.19;67.64;100931.31;146608;588;46034;-71
2023/06/19 03:19:18;;;;;;;;;19.00;17.75;;;;;21.20;67.46;100925.16;146614;607;47010;-69
2023/06/19 03:22:13;;;;;;;;;18.25;14.50;;;;;21.22;67.79;100925.19;146609;564;47013;-68
2023/06/19 03:25:09;;;;;;;;;19.25;16.75;;;;;21.23;67.61;100932.22;146611;601;46020;-68
2023/06/19 03:28:07;;;;;;;;;18.75;16.75;;;;;21.22;67.18;100923.44;146603;595;47013;-69
2023/06/19 03:31:18;;;;;;;;;18.25;16.00;;;;;21.24;67.07;100936.62;146613;605;47010;-68
2023/06/19 03:34:16;;;;;;;;;17.25;14.75;;;;;21.25;67.40;100935.78;146610;625;46015;-66
2023/06/19 03:37:09;;;;;;;;;16.25;15.00;;;;;21.26;67.68;100926.09;146613;644;46021;-67
2023/06/19 03:40:28;;;;;;;;;19.75;18.00;;;;;21.28;67.16;100927.91;146609;630;46016;-66
2023/06/19 03:43:38;;;;;;;;;16.75;14.00;;;;;21.31;67.08;100932.28;146613;601;46011;-66
2023/06/19 03:46:37;;;;;;;;;14.00;14.00;;;;;21.32;67.79;100931.44;146612;569;46012;-66
2023/06/19 03:49:32;;;;;;;;;16.50;15.25;;;;;21.32;67.98;100921.78;146612;632;46021;-66
2023/06/19 03:52:29;;;;;;;;;20.75;16.25;;;;;21.32;68.41;100923.53;146612;589;46016;-66
2023/06/19 03:55:41;;;;;;;;;16.75;14.00;;;;;21.30;69.15;100928.78;146608;646;46020;-67
2023/06/19 03:58:43;;;;;;;;;18.25;17.00;;;;;21.29;68.58;100920.88;146611;576;46013;-66
2023/06/19 04:02:05;;;;;;;;;16.75;16.75;;;;;21.29;68.30;100920.88;146614;570;46020;-66
2023/06/19 04:05:02;;;;;;;;;17.50;16.25;;;;;21.33;68.33;100930.56;146610;565;46038;-66
2023/06/19 04:08:07;;;;;;;;;14.25;14.25;;;;;21.38;68.98;100934.19;146611;651;46020;-69
2023/06/19 04:11:32;;;;;;;;;19.25;16.25;;;;;21.50;68.39;100933.44;146610;722;46922;-67
2023/06/19 04:14:40;;;;;;;;;16.00;13.75;;;;;21.62;68.50;100936.16;146614;660;46021;-68
2023/06/19 04:17:46;;;;;;;;;17.00;17.00;;;;;21.74;67.43;100933.62;146609;569;46918;-66
2023/06/19 04:21:05;;;;;;;;;16.00;14.50;;;;;21.86;68.08;100930.22;146614;586;46023;-66
2023/06/19 04:24:25;;;;;;;;;17.25;17.25;;;;;21.97;67.62;100933.84;146611;587;46012;-66
2023/06/19 04:27:29;;;;;;;;;16.25;15.00;;;;;22.10;67.05;100930.41;146609;669;46037;-66
2023/06/19 04:30:33;;;;;;;;;15.50;13.50;;;;;22.19;66.70;100928.75;146609;565;47014;-66
2023/06/19 04:33:32;;;;;;;;;16.00;16.00;;;;;22.25;66.40;100934.97;146612;664;46020;-67
2023/06/19 04:36:45;;;;;;;;;17.75;16.25;;;;;22.34;66.50;100942.06;146610;604;46035;-68
2023/06/19 04:39:37;;;;;;;;;15.25;14.50;;;;;22.46;65.82;100934.22;146612;699;47010;-70
2023/06/19 04:42:48;;;;;;;;;14.75;13.50;;;;;22.54;65.45;100937.78;146609;564;46017;-69
2023/06/19 04:45:52;;;;;;;;;15.00;14.75;;;;;22.66;65.26;100939.59;146609;566;47010;-67
2023/06/19 04:48:55;;;;;;;;;17.50;15.75;;;;;22.86;64.88;100944.97;146607;607;47012;-67
2023/06/19 04:52:11;;;;;;;;;14.50;14.00;;;;;20.96;64.05;100574.28;146614;591;46010;-69
2023/06/19 04:55:18;;;;;;;;;14.00;13.00;;;;;23.19;62.70;100941.63;146610;608;46016;-69
2023/06/19 04:58:18;;;;;;;;;16.50;15.25;;;;;23.29;63.11;100948.69;146612;576;46012;-68
2023/06/19 05:01:15;;;;;;;;;18.00;15.75;;;;;23.46;63.05;100950.50;146611;576;46012;-70
2023/06/19 05:04:13;;;;;;;;;15.25;13.50;;;;;23.60;62.79;100947.88;146614;670;46011;-69
2023/06/19 05:07:20;;;;;;;;;15.25;15.25;;;;;23.72;62.25;100937.34;146609;704;47012;-68
2023/06/19 05:10:30;;;;;;;;;15.25;13.00;;;;;23.86;61.55;100940.88;146613;634;47012;-69
2023/06/19 05:13:27;;;;;;;;;15.25;14.75;;;;;23.92;61.35;100932.91;146610;571;46921;-67
2023/06/19 05:16:27;;;;;;;;;15.50;15.00;;;;;24.09;61.24;100942.63;146614;576;46010;-67
2023/06/19 05:19:22;;;;;;;;;15.25;12.75;;;;;24.24;60.83;100945.28;146608;572;46016;-68
2023/06/19 05:22:18;;;;;;;;;13.25;13.25;;;;;24.38;59.47;100946.09;146613;620;46020;-67
2023/06/19 05:25:19;;;;;;;;;15.25;15.00;;;;;24.50;57.70;100941.72;146610;593;47012;-69
2023/06/19 05:28:13;;;;;;;;;14.50;13.00;;;;;24.55;58.53;100953.16;146613;697;46025;-68
2023/06/19 05:31:12;;;;;;;;;16.00;15.00;;;;;24.60;57.54;100964.66;146607;707;46016;-68
2023/06/19 05:34:18;;;;;;;;;16.67;14.67;;;;;24.66;57.32;100959.34;146614;668;46013;-68
2023/06/19 05:37:29;;;;;;;;;;;;;;;;;;;;;
2023/06/19 05:40:41;;;;;;;;;16.67;14.00;;;;;24.70;56.98;100962.84;146615;566;46010;-68
2023/06/19 05:44:02;;;;;;;;;13.67;13.67;;;;;24.74;56.67;100964.62;146612;564;46915;-69
2023/06/19 05:47:08;;;;;;;;;16.00;13.75;;;;;24.80;56.44;100962.84;146613;686;47010;-68
2023/06/19 05:50:08;;;;;;;;;16.33;12.00;;;;;24.88;56.19;100970.75;146611;576;46017;-67
2023/06/19 05:53:23;;;;;;;;;16.00;15.33;;;;;24.96;56.64;100968.09;146613;652;46020;-68
2023/06/19 05:56:24;;;;;;;;;15.00;15.00;;;;;25.07;56.44;100967.12;146609;587;46017;-67
2023/06/19 05:59:49;;;;;;;;;15.33;14.00;;;;;25.14;55.73;100968.03;146614;576;46020;-66
2023/06/19 06:02:51;;;;;;;;;13.67;13.67;;;;;25.20;54.89;100972.41;146603;684;46016;-67
2023/06/19 06:06:03;;;;;;;;;;;;;;;;;;;;;
2023/06/19 06:09:16;;;;;;;;;15.75;15.25;;;;;25.23;54.48;100975.94;146612;706;46920;-67
2023/06/19 06:12:31;;;;;;;;;15.00;13.33;;;;;23.16;54.94;100607.44;146614;580;47010;-66
2023/06/19 06:15:37;;;;;;;;;12.67;12.00;;;;;25.33;55.82;100975.00;146610;625;46014;-69
2023/06/19 06:18:36;;;;;;;;;13.00;12.00;;;;;25.45;54.30;100978.47;146613;576;46021;-67
2023/06/19 06:21:45;;;;;;;;;11.00;11.00;;;;;25.53;53.88;100980.19;146610;577;46016;-66
2023/06/19 06:24:54;;;;;;;;;15.67;14.67;;;;;25.56;53.15;100969.56;146613;580;46033;-69
2023/06/19 06:28:09;;;;;;;;;15.00;14.50;;;;;23.54;53.54;100623.19;146612;577;46919;-67
2023/06/19 06:31:27;;;;;;;;;14.67;14.67;;;;;25.73;53.53;100987.13;146612;579;46020;-67
2023/06/19 06:34:28;;;;;;;;;11.50;11.00;;;;;25.91;52.03;100984.38;146606;569;47013;-67
2023/06/19 06:37:34;;;;;;;;;13.33;12.33;;;;;26.08;51.71;100983.38;146612;572;47012;-67
2023/06/19 06:40:39;;;;;;;;;15.00;13.75;;;;;26.16;51.30;100979.75;146613;664;46013;-69
2023/06/19 06:43:44;;;;;;;;;;;;;;;;;;;;;
2023/06/19 06:46:43;;;;;;;;;14.25;11.75;;;;;26.30;51.20;100976.97;146610;632;46013;-69
2023/06/19 06:49:58;;;;;;;;;13.67;12.00;;;;;26.40;48.77;100978.66;146611;577;47012;-69
2023/06/19 06:53:01;;;;;;;;;14.00;11.67;;;;;26.47;49.18;100980.34;146612;601;46016;-70
2023/06/19 06:56:02;;;;;;;;;12.67;11.67;;;;;26.57;49.78;100985.59;146615;575;46021;-70
2023/06/19 06:59:05;;;;;;;;;13.00;13.00;;;;;26.64;49.28;100974.00;146625;581;46012;-70
2023/06/19 07:02:11;;;;;;;;;10.33;10.33;;;;;24.85;49.28;100661.34;146628;571;46010;-70
2023/06/19 07:05:15;;;;;;;;;14.67;12.00;;;;;26.70;49.31;100969.50;146622;570;47016;-70
2023/06/19 07:08:08;;;;;;;;;13.33;12.33;;;;;26.79;48.62;100979.16;146625;652;46010;-70
2023/06/19 07:11:28;;;;;;;;;;;;;;;;;;;;;
2023/06/19 07:14:31;;;;;;;;;12.00;10.67;;;;;26.93;48.62;100986.97;146628;563;45020;-70
2023/06/19 07:17:39;;;;;;;;;;;;;;;;;;;;;
2023/06/19 07:20:49;;;;;;;;;;;;;;;;;;;;;
2023/06/19 07:23:48;;;;;;;;;8.00;7.33;;;;;27.34;45.00;100990.91;146608;639;47012;-70
2023/06/19 07:26:55;;;;;;;;;11.00;11.00;;;;;27.50;44.97;100992.44;146610;565;46010;-70
2023/06/19 07:29:50;;;;;;;;;11.33;11.33;;;;;27.63;44.63;100988.72;146604;585;46016;-70
2023/06/19 07:32:55;;;;;;;;;8.33;8.33;;;;;27.74;43.86;100993.00;146607;599;46021;-70
2023/06/19 07:36:13;;;;;;;;;8.00;8.00;;;;;27.00;44.31;100834.28;146607;569;46016;-71
2023/06/19 07:39:21;;;;;;;;;;;;;;;;;;;;;
2023/06/19 07:42:30;;;;;;;;;9.33;8.33;;;;;28.08;42.17;100982.72;146600;646;47016;-70
2023/06/19 07:45:33;;;;;;;;;8.00;8.00;;;;;28.20;41.63;100986.97;146607;670;46012;-70
2023/06/19 07:48:30;;;;;;;;;11.33;7.33;;;;;28.29;41.15;100986.81;146603;572;46017;-70
2023/06/19 07:51:23;;;;;;;;;8.00;8.00;;;;;28.37;40.17;100979.53;146608;639;47010;-70
2023/06/19 07:54:30;;;;;;;;;9.67;9.33;;;;;26.79;40.48;100693.59;146607;590;46013;-70
2023/06/19 07:57:30;;;;;;;;;8.00;8.00;;;;;28.52;39.86;100989.94;146607;571;47020;-70
2023/06/19 08:00:29;;;;;;;;;8.67;8.00;;;;;28.61;39.63;100986.22;146607;582;46012;-71
2023/06/19 08:03:27;;;;;;;;;7.00;5.67;;;;;28.71;38.77;100992.25;146608;580;46020;-71
2023/06/19 08:06:31;;;;;;;;;8.67;7.67;;;;;28.82;44.55;100995.63;146606;598;46012;-70
2023/06/19 08:09:49;;;;;;;;;;;;;;;;;;;;;
2023/06/19 08:13:04;;;;;;;;;;;;;;;;;;;;;
2023/06/19 08:16:04;;;;;;;;;14.67;10.67;;;;;29.07;39.02;100981.78;146610;578;47012;-70
2023/06/19 08:19:13;;;;;;;;;;;;;;;;;;;;;
2023/06/19 08:22:20;;;;;;;;;7.00;7.00;;;;;29.26;40.64;100977.81;146605;661;48010;-70
2023/06/19 08:25:28;;;;;;;;;9.00;8.00;;;;;29.37;39.40;100981.09;146604;594;46012;-77
2023/06/19 08:28:24;;;;;;;;;9.33;9.00;;;;;29.47;38.91;100981.75;146610;595;47010;-70
2023/06/19 08:31:28;;;;;;;;;7.00;7.00;;;;;29.53;39.08;100978.09;146602;583;46016;-70
2023/06/19 08:34:29;;;;;;;;;10.00;9.00;;;;;29.58;39.58;100979.75;146607;566;47010;-73
2023/06/19 08:37:51;;;;;;;;;8.67;8.00;;;;;29.73;39.32;100988.34;146601;562;46021;-70
2023/06/19 08:40:50;;;;;;;;;8.33;7.00;;;;;29.83;41.18;100984.53;146609;642;46029;-71
2023/06/19 08:43:50;;;;;;;;;8.67;8.67;;;;;29.94;38.81;100985.16;146605;571;46016;-72
2023/06/19 08:47:03;;;;;;;;;12.67;8.67;;;;;30.01;40.51;100983.22;146608;578;46011;-70
2023/06/19 08:50:07;;;;;;;;;8.67;8.67;;;;;30.11;39.78;100979.37;146602;597;47012;-69
2023/06/19 08:53:12;;;;;;;;;;;;;;;;;;;;;
2023/06/19 08:56:18;;;;;;;;;9.67;9.00;;;;;30.29;42.60;100984.28;146606;650;46014;-69
2023/06/19 08:59:50;;;;;;;;;8.00;7.67;;;;;29.31;41.81;100788.94;146610;619;46010;-70
2023/06/19 09:03:05;;;;;;;;;12.33;10.67;;;;;30.52;43.49;100983.66;146604;692;47013;-68
2023/06/19 09:06:21;;;;;;;;;13.33;12.33;;;;;30.49;44.43;100981.06;146608;614;46020;-69
2023/06/19 09:09:34;;;;;;;;;;;;;;;;;;;;;
2023/06/19 09:13:12;;;;;;;;;12.00;10.50;;;;;28.36;45.82;100686.22;146604;669;48010;-70
2023/06/19 09:16:13;;;;;;;;;11.25;11.00;;;;;29.90;44.01;100983.47;146606;580;46016;-69
2023/06/19 09:19:12;;;;;;;;;11.50;10.75;;;;;29.71;43.12;100977.69;146606;565;46021;-70
2023/06/19 09:22:14;;;;;;;;;13.00;11.67;;;;;29.48;43.51;100969.31;146603;693;46016;-71
2023/06/19 09:25:30;;;;;;;;;12.75;12.75;;;;;28.44;42.58;100834.53;146609;688;46010;-71
2023/06/19 09:28:34;;;;;;;;;9.25;9.25;;;;;29.17;46.59;100962.84;146604;614;46016;-69
2023/06/19 09:31:53;;;;;;;;;14.25;12.75;;;;;27.62;46.57;100656.63;146608;581;46010;-68
2023/06/19 09:35:12;;;;;;;;;14.25;12.75;;;;;27.77;45.03;100650.16;146602;621;46014;-68
2023/06/19 09:38:41;;;;;;;;;12.25;12.00;;;;;28.02;45.68;100665.62;146606;581;46011;-68
2023/06/19 09:41:39;;;;;;;;;11.25;11.25;;;;;30.00;43.27;100968.06;146606;569;46012;-68
2023/06/19 09:44:42;;;;;;;;;11.75;10.50;;;;;30.13;43.35;100966.84;146603;580;47010;-68
2023/06/19 09:48:00;;;;;;;;;11.67;11.00;;;;;30.29;41.15;100964.69;146607;584;46016;-68
2023/06/19 09:51:34;;;;;;;;;11.00;9.00;;;;;30.32;43.02;100960.13;146607;626;46012;-68
2023/06/19 09:54:35;;;;;;;;;9.67;9.00;;;;;30.34;43.59;100954.72;146605;578;46024;-70
2023/06/19 09:57:40;;;;;;;;;8.00;6.25;;;;;30.44;44.87;100947.31;146608;600;46021;-69
2023/06/19 10:00:49;;;;;;;;;10.50;9.75;;;;;30.47;41.88;100958.84;146605;669;46016;-69
2023/06/19 10:04:00;;;;;;;;;13.00;12.00;;;;;30.51;41.63;100944.44;146607;644;46020;-70
2023/06/19 10:06:57;;;;;;;;;12.25;11.25;;;;;30.50;41.33;100950.72;146606;618;46016;-70
2023/06/19 10:10:13;;;;;;;;;10.33;10.33;;;;;30.44;44.17;100947.31;146606;581;46021;-70
2023/06/19 10:13:47;;;;;;;;;10.33;9.33;;;;;29.47;43.26;100794.75;146606;669;46919;-70
2023/06/19 10:17:11;;;;;;;;;12.00;11.00;;;;;30.28;41.96;100938.84;146608;564;46021;-69
2023/06/19 10:20:41;;;;;;;;;14.67;11.00;;;;;30.32;45.24;100937.84;146605;586;46016;-69
2023/06/19 10:24:02;;;;;;;;;8.67;8.67;;;;;28.73;44.34;100646.22;146607;570;46021;-69
2023/06/19 10:27:32;;;;;;;;;10.33;9.33;;;;;29.60;44.39;100788.22;146606;579;46012;-70
2023/06/19 10:30:36;;;;;;;;;10.33;10.00;;;;;30.54;42.89;100938.13;146610;643;46032;-69
2023/06/19 10:33:34;;;;;;;;;11.67;10.00;;;;;30.54;43.23;100932.78;146605;569;47012;-69
2023/06/19 10:36:41;;;;;;;;;12.00;10.00;;;;;29.90;43.80;100813.25;146606;594;47010;-69
2023/06/19 10:39:39;;;;;;;;;12.00;11.33;;;;;30.57;41.77;100930.03;146606;627;46916;-69
2023/06/19 10:42:59;;;;;;;;;12.00;11.00;;;;;29.80;43.77;100806.41;146604;569;46043;-69
2023/06/19 10:45:58;;;;;;;;;14.00;11.00;;;;;30.31;43.38;100920.94;146605;704;47012;-70
2023/06/19 10:49:04;;;;;;;;;10.25;10.25;;;;;30.26;42.00;100912.16;146606;713;46020;-70
2023/06/19 10:52:22;;;;;;;;;11.00;11.00;;;;;29.36;41.59;100752.31;146603;606;46016;-71
2023/06/19 10:55:37;;;;;;;;;10.67;8.67;;;;;28.07;39.97;100530.47;146608;663;46020;-70
2023/06/19 10:58:35;;;;;;;;;10.75;10.75;;;;;30.21;41.48;100913.19;146604;742;46014;-69
2023/06/19 11:01:42;;;;;;;;;10.75;9.75;;;;;29.98;41.46;100911.09;146605;588;46021;-71
2023/06/19 11:04:45;;;;;;;;;;;;;;;;;;;;;
2023/06/19 11:08:02;;;;;;;;;7.33;7.33;;;;;28.90;41.49;100788.12;146609;606;46010;-71
2023/06/19 11:11:01;;;;;;;;;10.33;9.67;;;;;29.61;42.62;100914.69;146607;570;46016;-69
2023/06/19 11:13:58;;;;;;;;;10.67;9.67;;;;;29.66;43.38;100905.66;146601;696;46020;-70
2023/06/19 11:17:21;;;;;;;;;8.67;7.33;;;;;29.78;40.97;100912.47;146605;634;46014;-71
2023/06/19 11:20:25;;;;;;;;;9.25;9.00;;;;;29.95;43.13;100905.84;146607;591;47010;-71
2023/06/19 11:23:43;;;;;;;;;13.00;9.33;;;;;30.10;40.54;100910.78;146606;588;46017;-71
2023/06/19 11:26:59;;;;;;;;;12.67;11.00;;;;;30.08;40.27;100901.91;146607;567;46020;-69
2023/06/19 11:30:03;;;;;;;;;10.00;10.00;;;;;29.98;41.22;100906.62;146600;699;47017;-71
2023/06/19 11:33:27;;;;;;;;;12.67;10.67;;;;;29.97;42.76;100912.00;146609;700;46020;-68
2023/06/19 11:36:32;;;;;;;;;12.00;10.00;;;;;30.00;41.62;100906.56;146603;589;47917;-69
2023/06/19 11:39:30;;;;;;;;;13.00;11.33;;;;;29.98;42.62;100901.28;146603;603;46914;-70
2023/06/19 11:43:01;;;;;;;;;11.00;10.00;;;;;28.15;42.88;100600.47;146604;579;46016;-70
2023/06/19 11:46:21;;;;;;;;;11.00;11.00;;;;;28.20;40.07;100630.56;146606;639;46021;-70
2023/06/19 11:49:57;;;;;;;;;10.33;9.00;;;;;28.13;42.00;100617.41;146606;569;46016;-69
2023/06/19 11:53:03;;;;;;;;;;;;;;;;;;;;;
2023/06/19 11:56:18;;;;;;;;;;;;;;;;;;;;;
2023/06/19 11:59:39;;;;;;;;;11.00;11.00;;;;;29.86;39.91;100893.56;146606;575;46020;-69
2023/06/19 12:02:58;;;;;;;;;12.00;10.00;;;;;29.82;40.51;100884.75;146605;630;46012;-70
2023/06/19 12:06:14;;;;;;;;;9.67;8.67;;;;;29.74;40.64;100885.88;146609;657;46010;-69
2023/06/19 12:09:07;;;;;;;;;10.33;10.00;;;;;29.69;41.09;100877.97;146606;565;46012;-69
2023/06/19 12:12:10;;;;;;;;;9.25;8.75;;;;;29.73;41.77;100881.44;146608;654;46010;-70
2023/06/19 12:15:05;;;;;;;;;11.00;10.67;;;;;29.74;40.26;100881.41;146602;608;46017;-69
2023/06/19 12:18:13;;;;;;;;;10.00;10.00;;;;;29.78;41.32;100876.84;146607;595;46020;-70
2023/06/19 12:21:11;;;;;;;;;10.67;9.33;;;;;29.81;40.44;100874.09;146605;573;46016;-69
2023/06/19 12:24:07;;;;;;;;;11.67;11.00;;;;;29.88;40.67;100873.03;146627;577;46010;-70
2023/06/19 12:27:09;;;;;;;;;8.00;6.33;;;;;29.89;40.11;100870.31;146626;588;45915;-70
2023/06/19 12:30:23;;;;;;;;;10.67;10.67;;;;;29.87;39.91;100872.13;146629;655;45021;-70
2023/06/19 12:33:35;;;;;;;;;10.33;10.00;;;;;29.67;38.98;100867.31;146626;655;45016;-71
2023/06/19 12:36:31;;;;;;;;;11.67;10.33;;;;;29.44;40.26;100862.53;146631;616;45010;-70
2023/06/19 12:39:37;;;;;;;;;8.50;8.00;;;;;29.33;40.57;100858.34;146625;675;45016;-70
2023/06/19 12:43:11;;;;;;;;;10.00;10.00;;;;;29.26;39.58;100862.09;146630;635;45020;-69
2023/06/19 12:46:11;;;;;;;;;9.75;9.75;;;;;29.20;40.76;100855.09;146626;595;45017;-71
2023/06/19 12:49:09;;;;;;;;;11.67;9.33;;;;;29.19;40.71;100851.56;146628;577;45020;-70
2023/06/19 12:52:08;;;;;;;;;10.33;10.33;;;;;29.27;41.06;100855.84;146627;616;45924;-70
2023/06/19 12:55:14;;;;;;;;;12.00;9.33;;;;;29.40;41.45;100863.50;146630;597;45030;-69
2023/06/19 12:58:09;;;;;;;;;10.33;10.00;;;;;29.55;41.63;100854.22;146625;599;45016;-70
2023/06/19 13:01:05;;;;;;;;;12.75;10.75;;;;;29.73;40.89;100860.94;146629;641;45010;-70
2023/06/19 13:04:15;;;;;;;;;8.00;8.00;;;;;29.89;41.59;100853.41;146628;651;45916;-69
2023/06/19 13:07:17;;;;;;;;;10.33;10.33;;;;;30.01;40.20;100858.41;146630;692;46010;-70
2023/06/19 13:10:35;;;;;;;;;10.00;9.00;;;;;30.08;41.71;100856.44;146627;626;45016;-69
2023/06/19 13:13:35;;;;;;;;;10.75;9.00;;;;;30.16;41.10;100854.44;146629;585;46008;-70
2023/06/19 13:16:41;;;;;;;;;8.67;8.67;;;;;30.21;41.16;100849.88;146625;616;45017;-69
2023/06/19 13:19:39;;;;;;;;;10.67;9.00;;;;;30.25;39.92;100848.88;146628;563;46010;-70
2023/06/19 13:22:44;;;;;;;;;9.67;9.67;;;;;30.17;40.50;100847.31;146620;662;45017;-70
2023/06/19 13:25:53;;;;;;;;;10.00;8.67;;;;;30.09;39.96;100847.50;146606;588;47012;-70
2023/06/19 13:28:48;;;;;;;;;11.00;11.00;;;;;30.11;39.50;100848.34;146605;603;46017;-70
2023/06/19 13:31:58;;;;;;;;;9.67;9.67;;;;;30.14;40.08;100851.81;146610;565;46010;-70
2023/06/19 13:34:57;;;;;;;;;10.67;9.67;;;;;30.14;41.02;100846.44;146606;566;46016;-69
2023/06/19 13:37:56;;;;;;;;;8.33;8.33;;;;;30.14;38.53;100843.78;146609;680;46021;-70
2023/06/19 13:41:03;;;;;;;;;9.00;9.00;;;;;30.06;40.32;100837.78;146605;615;47012;-69
2023/06/19 13:44:16;;;;;;;;;9.00;9.00;;;;;28.24;38.15;100556.72;146612;614;46011;-70
2023/06/19 13:47:30;;;;;;;;;10.50;9.00;;;;;29.79;39.93;100835.84;146607;681;46016;-70
2023/06/19 13:50:28;;;;;;;;;10.33;8.67;;;;;29.71;39.71;100835.16;146608;628;47010;-69
2023/06/19 13:53:28;;;;;;;;;12.00;10.33;;;;;29.71;41.50;100824.47;146604;625;46036;-69
2023/06/19 13:56:37;;;;;;;;;10.33;8.33;;;;;29.81;41.96;100828.66;146606;658;46020;-69
2023/06/19 13:59:44;;;;;;;;;8.00;8.00;;;;;29.91;41.41;100825.72;146604;615;46026;-69
2023/06/19 14:02:47;;;;;;;;;9.00;9.00;;;;;29.98;40.10;100825.53;146608;583;46010;-69
2023/06/19 14:05:43;;;;;;;;;8.33;8.00;;;;;29.97;40.38;100832.69;146607;586;46017;-69
2023/06/19 14:08:40;;;;;;;;;10.67;8.67;;;;;29.97;44.18;100824.66;146610;577;46010;-69
2023/06/19 14:11:39;;;;;;;;;8.33;8.33;;;;;29.96;44.17;100827.37;146607;627;46016;-67
2023/06/19 14:14:58;;;;;;;;;7.67;7.67;;;;;29.89;42.87;100824.00;146611;657;46011;-69
2023/06/19 14:18:05;;;;;;;;;10.33;10.33;;;;;29.83;41.90;100827.69;146606;587;46917;-68
2023/06/19 14:21:26;;;;;;;;;6.67;6.67;;;;;29.77;42.47;100822.53;146601;552;46020;-69
2023/06/19 14:24:42;;;;;;;;;13.33;12.00;;;;;27.96;42.63;100511.19;146622;626;46016;-70
2023/06/19 14:27:45;;;;;;;;;8.67;8.33;;;;;29.71;43.16;100813.78;146630;572;46010;-69
2023/06/19 14:30:51;;;;;;;;;9.33;9.33;;;;;29.70;43.29;100815.59;146629;692;46026;-71
2023/06/19 14:33:45;;;;;;;;;11.00;10.33;;;;;29.70;43.98;100810.25;146626;584;45020;-70
2023/06/19 14:36:40;;;;;;;;;9.67;8.00;;;;;29.65;47.14;100823.72;146630;589;45034;-70
2023/06/19 14:39:39;;;;;;;;;11.00;10.33;;;;;29.58;46.64;100816.75;146630;578;45010;-69